sensor_id;sensor_type;location;lat;lon;timestamp;P1;durP1;ratioP1;P2;durP2;ratioP2
12302;SDS011;6214;48.012;7.862;2022-09-28T00:01:21;6.90;;;1.70;;
12302;SDS011;6214;48.012;7.862;2022-09-28T00:03:50;7.20;;;1.77;;
12302;SDS011;6214;48.012;7.862;2022-09-28T00:06:18;5.43;;;1.40;;
12302;SDS011;6214;48.012;7.862;2022-09-28T00:08:47;5.45;;;1.60;;
12302;SDS011;6214;48.012;7.862;2022-09-28T00:11:16;6.70;;;1.50;;
12302;SDS011;6214;48.012;7.862;2022-09-28T00:13:49;7.18;;;1.90;;
12302;SDS011;6214;48.012;7.862;2022-09-28T00:16:18;6.68;;;1.80;;
12302;SDS011;6214;48.012;7.862;2022-09-28T00:18:47;7.07;;;1.70;;
12302;SDS011;6214;48.012;7.862;2022-09-28T00:21:17;5.22;;;1.50;;
12302;SDS011;6214;48.012;7.862;2022-09-28T00:23:46;8.27;;;1.90;;
12302;SDS011;6214;48.012;7.862;2022-09-28T00:26:34;7.20;;;1.90;;
12302;SDS011;6214;48.012;7.862;2022-09-28T00:29:02;5.80;;;1.67;;
12302;SDS011;6214;48.012;7.862;2022-09-28T00:31:30;5.60;;;1.70;;
12302;SDS011;6214;48.012;7.862;2022-09-28T00:34:01;6.68;;;1.60;;
12302;SDS011;6214;48.012;7.862;2022-09-28T00:36:30;6.82;;;1.70;;
12302;SDS011;6214;48.012;7.862;2022-09-28T00:38:58;5.93;;;1.80;;
12302;SDS011;6214;48.012;7.862;2022-09-28T00:41:29;6.55;;;1.95;;
12302;SDS011;6214;48.012;7.862;2022-09-28T00:46:48;5.60;;;1.67;;
12302;SDS011;6214;48.012;7.862;2022-09-28T00:49:18;5.30;;;1.63;;
12302;SDS011;6214;48.012;7.862;2022-09-28T00:51:51;6.28;;;1.60;;
12302;SDS011;6214;48.012;7.862;2022-09-28T00:54:18;6.00;;;1.63;;
12302;SDS011;6214;48.012;7.862;2022-09-28T00:56:46;6.13;;;1.50;;
12302;SDS011;6214;48.012;7.862;2022-09-28T00:59:13;5.63;;;1.50;;
12302;SDS011;6214;48.012;7.862;2022-09-28T01:01:41;5.63;;;1.40;;
12302;SDS011;6214;48.012;7.862;2022-09-28T01:04:08;5.18;;;1.60;;
12302;SDS011;6214;48.012;7.862;2022-09-28T01:06:35;4.80;;;1.40;;
12302;SDS011;6214;48.012;7.862;2022-09-28T01:09:04;4.75;;;1.20;;
12302;SDS011;6214;48.012;7.862;2022-09-28T01:11:35;4.65;;;1.13;;
12302;SDS011;6214;48.012;7.862;2022-09-28T01:14:05;4.82;;;1.40;;
12302;SDS011;6214;48.012;7.862;2022-09-28T01:16:40;5.07;;;1.20;;
12302;SDS011;6214;48.012;7.862;2022-09-28T01:27:31;5.15;;;1.30;;
12302;SDS011;6214;48.012;7.862;2022-09-28T01:35:46;4.50;;;1.10;;
12302;SDS011;6214;48.012;7.862;2022-09-28T01:38:20;4.30;;;1.00;;
12302;SDS011;6214;48.012;7.862;2022-09-28T01:40:50;5.75;;;1.13;;
12302;SDS011;6214;48.012;7.862;2022-09-28T01:43:28;4.15;;;1.00;;
12302;SDS011;6214;48.012;7.862;2022-09-28T01:45:59;4.97;;;1.08;;
12302;SDS011;6214;48.012;7.862;2022-09-28T01:48:34;4.28;;;1.00;;
12302;SDS011;6214;48.012;7.862;2022-09-28T01:51:15;4.53;;;0.70;;
12302;SDS011;6214;48.012;7.862;2022-09-28T01:53:46;4.00;;;0.95;;
12302;SDS011;6214;48.012;7.862;2022-09-28T01:56:20;4.37;;;0.93;;
12302;SDS011;6214;48.012;7.862;2022-09-28T01:58:53;4.00;;;1.00;;
12302;SDS011;6214;48.012;7.862;2022-09-28T02:01:33;4.20;;;0.80;;
12302;SDS011;6214;48.012;7.862;2022-09-28T02:04:11;3.80;;;0.70;;
12302;SDS011;6214;48.012;7.862;2022-09-28T02:06:44;4.10;;;0.90;;
12302;SDS011;6214;48.012;7.862;2022-09-28T02:09:17;4.07;;;0.90;;
12302;SDS011;6214;48.012;7.862;2022-09-28T02:12:00;4.20;;;0.80;;
12302;SDS011;6214;48.012;7.862;2022-09-28T02:14:32;3.80;;;0.80;;
12302;SDS011;6214;48.012;7.862;2022-09-28T02:17:03;4.38;;;0.90;;
12302;SDS011;6214;48.012;7.862;2022-09-28T02:19:30;3.58;;;0.80;;
12302;SDS011;6214;48.012;7.862;2022-09-28T02:22:42;3.45;;;0.70;;
12302;SDS011;6214;48.012;7.862;2022-09-28T02:25:10;3.40;;;0.60;;
12302;SDS011;6214;48.012;7.862;2022-09-28T02:30:31;3.20;;;0.50;;
12302;SDS011;6214;48.012;7.862;2022-09-28T02:35:53;4.20;;;0.50;;
12302;SDS011;6214;48.012;7.862;2022-09-28T02:38:21;3.30;;;0.60;;
12302;SDS011;6214;48.012;7.862;2022-09-28T02:40:51;4.22;;;1.10;;
12302;SDS011;6214;48.012;7.862;2022-09-28T02:46:31;4.07;;;0.70;;
12302;SDS011;6214;48.012;7.862;2022-09-28T03:00:29;3.60;;;0.50;;
12302;SDS011;6214;48.012;7.862;2022-09-28T03:05:35;4.40;;;0.70;;
12302;SDS011;6214;48.012;7.862;2022-09-28T03:08:19;3.70;;;0.60;;
12302;SDS011;6214;48.012;7.862;2022-09-28T03:10:55;3.80;;;0.73;;
12302;SDS011;6214;48.012;7.862;2022-09-28T03:13:27;3.60;;;0.68;;
12302;SDS011;6214;48.012;7.862;2022-09-28T03:16:09;3.63;;;0.70;;
12302;SDS011;6214;48.012;7.862;2022-09-28T03:18:38;3.28;;;0.50;;
12302;SDS011;6214;48.012;7.862;2022-09-28T03:21:06;3.60;;;0.60;;
12302;SDS011;6214;48.012;7.862;2022-09-28T03:23:34;3.40;;;0.70;;
12302;SDS011;6214;48.012;7.862;2022-09-28T03:26:01;3.10;;;0.50;;
12302;SDS011;6214;48.012;7.862;2022-09-28T03:28:28;3.33;;;0.50;;
12302;SDS011;6214;48.012;7.862;2022-09-28T03:30:55;3.80;;;0.50;;
12302;SDS011;6214;48.012;7.862;2022-09-28T03:33:22;3.50;;;0.70;;
12302;SDS011;6214;48.012;7.862;2022-09-28T03:35:49;3.22;;;0.65;;
12302;SDS011;6214;48.012;7.862;2022-09-28T03:38:17;3.33;;;0.60;;
12302;SDS011;6214;48.012;7.862;2022-09-28T03:40:54;3.90;;;0.70;;
12302;SDS011;6214;48.012;7.862;2022-09-28T03:43:23;3.97;;;0.60;;
12302;SDS011;6214;48.012;7.862;2022-09-28T03:45:58;3.20;;;0.50;;
12302;SDS011;6214;48.012;7.862;2022-09-28T03:48:27;3.30;;;0.60;;
12302;SDS011;6214;48.012;7.862;2022-09-28T03:51:02;3.80;;;0.55;;
12302;SDS011;6214;48.012;7.862;2022-09-28T03:53:31;4.40;;;0.60;;
12302;SDS011;6214;48.012;7.862;2022-09-28T03:56:02;3.50;;;0.60;;
12302;SDS011;6214;48.012;7.862;2022-09-28T03:58:31;3.60;;;0.68;;
12302;SDS011;6214;48.012;7.862;2022-09-28T04:01:02;3.00;;;0.40;;
12302;SDS011;6214;48.012;7.862;2022-09-28T04:03:31;3.90;;;0.60;;
12302;SDS011;6214;48.012;7.862;2022-09-28T04:05:59;4.10;;;0.60;;
12302;SDS011;6214;48.012;7.862;2022-09-28T04:08:27;3.90;;;0.60;;
12302;SDS011;6214;48.012;7.862;2022-09-28T04:10:57;3.80;;;0.60;;
12302;SDS011;6214;48.012;7.862;2022-09-28T04:13:25;3.90;;;0.60;;
12302;SDS011;6214;48.012;7.862;2022-09-28T04:15:54;3.58;;;0.60;;
12302;SDS011;6214;48.012;7.862;2022-09-28T04:18:23;3.10;;;0.60;;
12302;SDS011;6214;48.012;7.862;2022-09-28T04:20:59;3.20;;;0.40;;
12302;SDS011;6214;48.012;7.862;2022-09-28T04:23:33;3.22;;;0.52;;
12302;SDS011;6214;48.012;7.862;2022-09-28T04:26:02;3.53;;;0.50;;
12302;SDS011;6214;48.012;7.862;2022-09-28T04:28:30;3.40;;;0.50;;
12302;SDS011;6214;48.012;7.862;2022-09-28T04:31:17;3.80;;;0.50;;
12302;SDS011;6214;48.012;7.862;2022-09-28T04:33:47;3.60;;;0.50;;
12302;SDS011;6214;48.012;7.862;2022-09-28T04:36:14;3.47;;;0.47;;
12302;SDS011;6214;48.012;7.862;2022-09-28T04:38:41;3.15;;;0.55;;
12302;SDS011;6214;48.012;7.862;2022-09-28T04:41:18;3.00;;;0.40;;
12302;SDS011;6214;48.012;7.862;2022-09-28T04:43:48;3.60;;;0.68;;
12302;SDS011;6214;48.012;7.862;2022-09-28T04:46:15;3.60;;;0.50;;
12302;SDS011;6214;48.012;7.862;2022-09-28T04:48:42;3.15;;;0.40;;
12302;SDS011;6214;48.012;7.862;2022-09-28T04:51:09;3.15;;;0.40;;
12302;SDS011;6214;48.012;7.862;2022-09-28T04:53:36;3.50;;;0.50;;
12302;SDS011;6214;48.012;7.862;2022-09-28T04:56:05;3.40;;;0.50;;
12302;SDS011;6214;48.012;7.862;2022-09-28T04:58:34;3.10;;;0.40;;
12302;SDS011;6214;48.012;7.862;2022-09-28T05:01:03;3.20;;;0.50;;
12302;SDS011;6214;48.012;7.862;2022-09-28T05:03:32;3.30;;;0.50;;
12302;SDS011;6214;48.012;7.862;2022-09-28T05:05:59;3.10;;;0.50;;
12302;SDS011;6214;48.012;7.862;2022-09-28T05:08:26;3.03;;;0.40;;
12302;SDS011;6214;48.012;7.862;2022-09-28T05:11:01;3.40;;;0.40;;
12302;SDS011;6214;48.012;7.862;2022-09-28T05:13:29;3.00;;;0.40;;
12302;SDS011;6214;48.012;7.862;2022-09-28T05:15:57;2.90;;;0.40;;
12302;SDS011;6214;48.012;7.862;2022-09-28T05:18:30;3.03;;;0.40;;
12302;SDS011;6214;48.012;7.862;2022-09-28T05:20:57;3.93;;;0.60;;
12302;SDS011;6214;48.012;7.862;2022-09-28T05:23:24;3.10;;;0.40;;
12302;SDS011;6214;48.012;7.862;2022-09-28T05:25:51;3.88;;;0.50;;
12302;SDS011;6214;48.012;7.862;2022-09-28T05:28:21;3.00;;;0.50;;
12302;SDS011;6214;48.012;7.862;2022-09-28T05:30:51;4.40;;;0.50;;
12302;SDS011;6214;48.012;7.862;2022-09-28T05:33:18;3.17;;;0.50;;
12302;SDS011;6214;48.012;7.862;2022-09-28T05:35:45;3.20;;;0.60;;
12302;SDS011;6214;48.012;7.862;2022-09-28T05:38:19;3.00;;;0.40;;
12302;SDS011;6214;48.012;7.862;2022-09-28T05:40:45;3.20;;;0.40;;
12302;SDS011;6214;48.012;7.862;2022-09-28T05:43:12;3.70;;;0.52;;
12302;SDS011;6214;48.012;7.862;2022-09-28T05:45:39;3.00;;;0.50;;
12302;SDS011;6214;48.012;7.862;2022-09-28T05:48:06;3.20;;;0.50;;
12302;SDS011;6214;48.012;7.862;2022-09-28T05:50:33;3.00;;;0.40;;
12302;SDS011;6214;48.012;7.862;2022-09-28T05:53:02;3.40;;;0.50;;
12302;SDS011;6214;48.012;7.862;2022-09-28T05:55:31;3.10;;;0.40;;
12302;SDS011;6214;48.012;7.862;2022-09-28T05:58:00;3.00;;;0.40;;
12302;SDS011;6214;48.012;7.862;2022-09-28T06:00:28;3.60;;;0.47;;
12302;SDS011;6214;48.012;7.862;2022-09-28T06:03:01;3.28;;;0.60;;
12302;SDS011;6214;48.012;7.862;2022-09-28T06:05:35;3.55;;;0.50;;
12302;SDS011;6214;48.012;7.862;2022-09-28T06:08:05;3.17;;;0.40;;
12302;SDS011;6214;48.012;7.862;2022-09-28T06:10:33;3.30;;;0.60;;
12302;SDS011;6214;48.012;7.862;2022-09-28T06:13:01;3.20;;;0.50;;
12302;SDS011;6214;48.012;7.862;2022-09-28T06:15:32;3.25;;;0.50;;
12302;SDS011;6214;48.012;7.862;2022-09-28T06:18:04;3.30;;;0.60;;
12302;SDS011;6214;48.012;7.862;2022-09-28T06:20:34;3.80;;;0.70;;
12302;SDS011;6214;48.012;7.862;2022-09-28T06:23:03;3.90;;;0.70;;
12302;SDS011;6214;48.012;7.862;2022-09-28T06:25:30;3.47;;;0.80;;
12302;SDS011;6214;48.012;7.862;2022-09-28T06:30:32;3.60;;;0.80;;
12302;SDS011;6214;48.012;7.862;2022-09-28T06:33:04;3.80;;;0.80;;
12302;SDS011;6214;48.012;7.862;2022-09-28T06:35:32;4.10;;;1.00;;
12302;SDS011;6214;48.012;7.862;2022-09-28T06:38:00;6.33;;;1.00;;
12302;SDS011;6214;48.012;7.862;2022-09-28T06:40:27;3.80;;;1.00;;
12302;SDS011;6214;48.012;7.862;2022-09-28T06:42:55;3.60;;;0.90;;
12302;SDS011;6214;48.012;7.862;2022-09-28T06:45:24;3.70;;;1.00;;
12302;SDS011;6214;48.012;7.862;2022-09-28T06:47:56;4.50;;;1.00;;
12302;SDS011;6214;48.012;7.862;2022-09-28T06:50:28;3.50;;;0.70;;
12302;SDS011;6214;48.012;7.862;2022-09-28T06:53:00;4.75;;;0.90;;
12302;SDS011;6214;48.012;7.862;2022-09-28T06:55:27;4.57;;;0.80;;
12302;SDS011;6214;48.012;7.862;2022-09-28T06:57:59;4.00;;;0.80;;
12302;SDS011;6214;48.012;7.862;2022-09-28T07:00:28;3.40;;;0.70;;
12302;SDS011;6214;48.012;7.862;2022-09-28T07:03:00;5.38;;;0.90;;
12302;SDS011;6214;48.012;7.862;2022-09-28T07:05:28;4.90;;;0.90;;
12302;SDS011;6214;48.012;7.862;2022-09-28T07:07:59;4.77;;;0.90;;
12302;SDS011;6214;48.012;7.862;2022-09-28T07:10:27;4.28;;;0.90;;
12302;SDS011;6214;48.012;7.862;2022-09-28T07:12:56;4.88;;;0.90;;
12302;SDS011;6214;48.012;7.862;2022-09-28T07:15:24;4.20;;;1.00;;
12302;SDS011;6214;48.012;7.862;2022-09-28T07:17:57;4.50;;;1.10;;
12302;SDS011;6214;48.012;7.862;2022-09-28T07:20:29;4.80;;;1.00;;
12302;SDS011;6214;48.012;7.862;2022-09-28T07:23:09;4.53;;;0.82;;
12302;SDS011;6214;48.012;7.862;2022-09-28T07:25:44;4.32;;;0.90;;
12302;SDS011;6214;48.012;7.862;2022-09-28T07:28:13;4.40;;;1.00;;
12302;SDS011;6214;48.012;7.862;2022-09-28T07:30:41;5.67;;;0.97;;
12302;SDS011;6214;48.012;7.862;2022-09-28T07:33:11;3.78;;;0.90;;
12302;SDS011;6214;48.012;7.862;2022-09-28T07:35:40;3.90;;;0.90;;
12302;SDS011;6214;48.012;7.862;2022-09-28T07:38:08;4.00;;;0.80;;
12302;SDS011;6214;48.012;7.862;2022-09-28T07:40:36;5.93;;;1.00;;
12302;SDS011;6214;48.012;7.862;2022-09-28T07:43:22;5.30;;;1.00;;
12302;SDS011;6214;48.012;7.862;2022-09-28T07:45:50;3.85;;;0.80;;
12302;SDS011;6214;48.012;7.862;2022-09-28T07:48:18;5.40;;;1.03;;
12302;SDS011;6214;48.012;7.862;2022-09-28T07:50:50;5.15;;;1.88;;
12302;SDS011;6214;48.012;7.862;2022-09-28T07:53:18;4.10;;;0.90;;
12302;SDS011;6214;48.012;7.862;2022-09-28T07:55:50;5.32;;;1.20;;
12302;SDS011;6214;48.012;7.862;2022-09-28T07:58:21;4.80;;;1.10;;
12302;SDS011;6214;48.012;7.862;2022-09-28T08:00:48;4.38;;;1.60;;
12302;SDS011;6214;48.012;7.862;2022-09-28T08:03:17;4.55;;;1.70;;
12302;SDS011;6214;48.012;7.862;2022-09-28T08:05:45;3.80;;;1.00;;
12302;SDS011;6214;48.012;7.862;2022-09-28T08:08:13;4.90;;;1.20;;
12302;SDS011;6214;48.012;7.862;2022-09-28T08:10:41;4.15;;;0.80;;
12302;SDS011;6214;48.012;7.862;2022-09-28T08:13:13;4.10;;;0.90;;
12302;SDS011;6214;48.012;7.862;2022-09-28T08:15:41;4.60;;;0.90;;
12302;SDS011;6214;48.012;7.862;2022-09-28T08:18:08;3.90;;;0.80;;
12302;SDS011;6214;48.012;7.862;2022-09-28T08:20:35;4.50;;;1.00;;
12302;SDS011;6214;48.012;7.862;2022-09-28T08:23:21;3.65;;;0.80;;
12302;SDS011;6214;48.012;7.862;2022-09-28T08:25:49;4.07;;;0.70;;
12302;SDS011;6214;48.012;7.862;2022-09-28T08:28:20;4.70;;;0.70;;
12302;SDS011;6214;48.012;7.862;2022-09-28T08:30:49;4.40;;;0.80;;
12302;SDS011;6214;48.012;7.862;2022-09-28T08:33:17;3.40;;;0.80;;
12302;SDS011;6214;48.012;7.862;2022-09-28T08:35:53;3.33;;;0.75;;
12302;SDS011;6214;48.012;7.862;2022-09-28T08:38:23;3.78;;;0.60;;
12302;SDS011;6214;48.012;7.862;2022-09-28T08:46:22;3.90;;;0.80;;
12302;SDS011;6214;48.012;7.862;2022-09-28T08:57:10;3.40;;;0.70;;
12302;SDS011;6214;48.012;7.862;2022-09-28T09:02:44;4.30;;;0.80;;
12302;SDS011;6214;48.012;7.862;2022-09-28T09:05:13;4.10;;;0.80;;
12302;SDS011;6214;48.012;7.862;2022-09-28T09:10:54;3.90;;;0.80;;
12302;SDS011;6214;48.012;7.862;2022-09-28T09:13:30;3.80;;;0.75;;
12302;SDS011;6214;48.012;7.862;2022-09-28T09:16:16;4.07;;;0.90;;
12302;SDS011;6214;48.012;7.862;2022-09-28T09:21:40;4.03;;;0.80;;
12302;SDS011;6214;48.012;7.862;2022-09-28T09:24:28;4.20;;;0.80;;
12302;SDS011;6214;48.012;7.862;2022-09-28T09:27:05;3.60;;;0.70;;
12302;SDS011;6214;48.012;7.862;2022-09-28T09:30:05;3.30;;;0.60;;
12302;SDS011;6214;48.012;7.862;2022-09-28T09:41:15;3.80;;;0.80;;
12302;SDS011;6214;48.012;7.862;2022-09-28T09:46:31;4.13;;;1.10;;
12302;SDS011;6214;48.012;7.862;2022-09-28T09:49:21;4.40;;;1.20;;
12302;SDS011;6214;48.012;7.862;2022-09-28T09:52:05;3.53;;;0.80;;
12302;SDS011;6214;48.012;7.862;2022-09-28T09:57:45;3.67;;;0.90;;
12302;SDS011;6214;48.012;7.862;2022-09-28T10:00:17;4.45;;;1.10;;
12302;SDS011;6214;48.012;7.862;2022-09-28T10:02:44;5.30;;;1.65;;
12302;SDS011;6214;48.012;7.862;2022-09-28T10:05:15;4.90;;;1.40;;
12302;SDS011;6214;48.012;7.862;2022-09-28T10:13:27;5.30;;;1.30;;
12302;SDS011;6214;48.012;7.862;2022-09-28T10:15:54;4.20;;;0.85;;
12302;SDS011;6214;48.012;7.862;2022-09-28T10:18:21;3.88;;;1.00;;
12302;SDS011;6214;48.012;7.862;2022-09-28T10:20:48;4.18;;;1.25;;
12302;SDS011;6214;48.012;7.862;2022-09-28T10:23:20;4.70;;;1.30;;
12302;SDS011;6214;48.012;7.862;2022-09-28T10:25:51;4.50;;;1.50;;
12302;SDS011;6214;48.012;7.862;2022-09-28T10:28:32;4.20;;;1.40;;
12302;SDS011;6214;48.012;7.862;2022-09-28T10:31:31;5.50;;;1.60;;
12302;SDS011;6214;48.012;7.862;2022-09-28T10:34:24;4.88;;;1.40;;
12302;SDS011;6214;48.012;7.862;2022-09-28T10:41:58;5.33;;;1.10;;
12302;SDS011;6214;48.012;7.862;2022-09-28T10:44:29;5.22;;;1.70;;
12302;SDS011;6214;48.012;7.862;2022-09-28T10:47:00;5.20;;;2.17;;
12302;SDS011;6214;48.012;7.862;2022-09-28T10:49:34;4.77;;;1.40;;
12302;SDS011;6214;48.012;7.862;2022-09-28T10:54:56;4.50;;;1.48;;
12302;SDS011;6214;48.012;7.862;2022-09-28T10:57:25;5.43;;;1.80;;
12302;SDS011;6214;48.012;7.862;2022-09-28T10:59:54;4.32;;;1.65;;
12302;SDS011;6214;48.012;7.862;2022-09-28T11:02:28;3.80;;;1.20;;
12302;SDS011;6214;48.012;7.862;2022-09-28T11:05:02;4.50;;;1.30;;
12302;SDS011;6214;48.012;7.862;2022-09-28T11:07:31;4.20;;;1.02;;
12302;SDS011;6214;48.012;7.862;2022-09-28T11:10:00;4.50;;;1.20;;
12302;SDS011;6214;48.012;7.862;2022-09-28T11:12:33;5.53;;;1.02;;
12302;SDS011;6214;48.012;7.862;2022-09-28T11:15:05;3.80;;;0.80;;
12302;SDS011;6214;48.012;7.862;2022-09-28T11:17:36;5.00;;;1.13;;
12302;SDS011;6214;48.012;7.862;2022-09-28T11:22:54;6.05;;;2.50;;
12302;SDS011;6214;48.012;7.862;2022-09-28T11:25:41;6.10;;;2.50;;
12302;SDS011;6214;48.012;7.862;2022-09-28T11:28:15;5.40;;;2.30;;
12302;SDS011;6214;48.012;7.862;2022-09-28T11:30:50;4.85;;;1.85;;
12302;SDS011;6214;48.012;7.862;2022-09-28T11:33:28;5.80;;;1.40;;
12302;SDS011;6214;48.012;7.862;2022-09-28T11:46:37;5.57;;;2.30;;
12302;SDS011;6214;48.012;7.862;2022-09-28T11:49:52;4.60;;;1.92;;
12302;SDS011;6214;48.012;7.862;2022-09-28T11:52:39;6.15;;;3.10;;
12302;SDS011;6214;48.012;7.862;2022-09-28T11:55:20;8.68;;;5.75;;
12302;SDS011;6214;48.012;7.862;2022-09-28T12:00:37;5.10;;;1.70;;
12302;SDS011;6214;48.012;7.862;2022-09-28T12:03:20;6.65;;;3.53;;
12302;SDS011;6214;48.012;7.862;2022-09-28T12:05:58;11.00;;;7.90;;
12302;SDS011;6214;48.012;7.862;2022-09-28T12:08:30;9.35;;;6.45;;
12302;SDS011;6214;48.012;7.862;2022-09-28T12:11:38;12.30;;;10.50;;
12302;SDS011;6214;48.012;7.862;2022-09-28T12:14:01;10.90;;;7.40;;
12302;SDS011;6214;48.012;7.862;2022-09-28T12:16:36;12.65;;;8.85;;
12302;SDS011;6214;48.012;7.862;2022-09-28T12:22:18;14.93;;;10.67;;
12302;SDS011;6214;48.012;7.862;2022-09-28T12:24:55;7.97;;;4.75;;
12302;SDS011;6214;48.012;7.862;2022-09-28T12:30:26;16.42;;;10.48;;
12302;SDS011;6214;48.012;7.862;2022-09-28T12:33:00;12.32;;;8.15;;
12302;SDS011;6214;48.012;7.862;2022-09-28T12:36:00;15.45;;;11.02;;
12302;SDS011;6214;48.012;7.862;2022-09-28T12:44:54;12.85;;;9.52;;
12302;SDS011;6214;48.012;7.862;2022-09-28T12:50:26;6.78;;;3.25;;
12302;SDS011;6214;48.012;7.862;2022-09-28T12:55:52;9.30;;;5.70;;
12302;SDS011;6214;48.012;7.862;2022-09-28T13:00:57;17.90;;;13.10;;
12302;SDS011;6214;48.012;7.862;2022-09-28T13:09:02;8.48;;;5.25;;
12302;SDS011;6214;48.012;7.862;2022-09-28T13:16:58;14.43;;;11.40;;
12302;SDS011;6214;48.012;7.862;2022-09-28T13:25:12;11.75;;;9.80;;
12302;SDS011;6214;48.012;7.862;2022-09-28T13:30:43;9.65;;;7.13;;
12302;SDS011;6214;48.012;7.862;2022-09-28T13:33:14;13.30;;;9.95;;
12302;SDS011;6214;48.012;7.862;2022-09-28T13:35:45;12.65;;;9.80;;
12302;SDS011;6214;48.012;7.862;2022-09-28T13:51:29;17.20;;;14.68;;
12302;SDS011;6214;48.012;7.862;2022-09-28T13:54:36;6.53;;;3.08;;
12302;SDS011;6214;48.012;7.862;2022-09-28T13:57:30;4.30;;;1.75;;
12302;SDS011;6214;48.012;7.862;2022-09-28T14:02:42;10.55;;;6.65;;
12302;SDS011;6214;48.012;7.862;2022-09-28T14:10:55;4.97;;;1.55;;
12302;SDS011;6214;48.012;7.862;2022-09-28T14:24:09;4.88;;;1.52;;
12302;SDS011;6214;48.012;7.862;2022-09-28T14:29:35;4.07;;;1.10;;
12302;SDS011;6214;48.012;7.862;2022-09-28T14:32:04;3.80;;;1.10;;
12302;SDS011;6214;48.012;7.862;2022-09-28T14:34:57;4.15;;;1.33;;
12302;SDS011;6214;48.012;7.862;2022-09-28T14:37:28;3.85;;;1.10;;
12302;SDS011;6214;48.012;7.862;2022-09-28T14:40:20;4.10;;;0.80;;
12302;SDS011;6214;48.012;7.862;2022-09-28T14:43:19;4.28;;;1.67;;
12302;SDS011;6214;48.012;7.862;2022-09-28T14:56:20;3.45;;;0.60;;
12302;SDS011;6214;48.012;7.862;2022-09-28T14:58:52;3.60;;;0.70;;
12302;SDS011;6214;48.012;7.862;2022-09-28T15:01:22;4.00;;;0.77;;
12302;SDS011;6214;48.012;7.862;2022-09-28T15:03:53;3.63;;;0.50;;
12302;SDS011;6214;48.012;7.862;2022-09-28T15:06:22;5.53;;;2.93;;
12302;SDS011;6214;48.012;7.862;2022-09-28T15:08:50;13.53;;;9.33;;
12302;SDS011;6214;48.012;7.862;2022-09-28T15:11:19;38.85;;;30.33;;
12302;SDS011;6214;48.012;7.862;2022-09-28T15:13:49;9.30;;;6.40;;
12302;SDS011;6214;48.012;7.862;2022-09-28T15:16:21;5.20;;;2.17;;
12302;SDS011;6214;48.012;7.862;2022-09-28T15:18:53;4.60;;;1.05;;
12302;SDS011;6214;48.012;7.862;2022-09-28T15:21:34;3.60;;;0.90;;
12302;SDS011;6214;48.012;7.862;2022-09-28T15:26:59;6.70;;;2.50;;
12302;SDS011;6214;48.012;7.862;2022-09-28T15:29:27;11.65;;;8.25;;
12302;SDS011;6214;48.012;7.862;2022-09-28T15:31:58;8.50;;;5.05;;
12302;SDS011;6214;48.012;7.862;2022-09-28T15:34:32;5.00;;;2.00;;
12302;SDS011;6214;48.012;7.862;2022-09-28T15:37:28;13.35;;;8.13;;
12302;SDS011;6214;48.012;7.862;2022-09-28T15:40:10;12.87;;;8.27;;
12302;SDS011;6214;48.012;7.862;2022-09-28T15:42:40;9.10;;;5.38;;
12302;SDS011;6214;48.012;7.862;2022-09-28T15:47:53;4.40;;;1.70;;
12302;SDS011;6214;48.012;7.862;2022-09-28T15:50:33;3.90;;;1.10;;
12302;SDS011;6214;48.012;7.862;2022-09-28T15:53:02;4.82;;;1.40;;
12302;SDS011;6214;48.012;7.862;2022-09-28T15:55:31;6.00;;;2.88;;
12302;SDS011;6214;48.012;7.862;2022-09-28T15:58:05;6.22;;;3.40;;
12302;SDS011;6214;48.012;7.862;2022-09-28T16:00:43;5.72;;;2.90;;
12302;SDS011;6214;48.012;7.862;2022-09-28T16:06:04;5.13;;;1.90;;
12302;SDS011;6214;48.012;7.862;2022-09-28T16:08:41;7.35;;;5.05;;
12302;SDS011;6214;48.012;7.862;2022-09-28T16:14:27;8.93;;;5.10;;
12302;SDS011;6214;48.012;7.862;2022-09-28T16:19:26;4.28;;;1.20;;
12302;SDS011;6214;48.012;7.862;2022-09-28T16:21:56;5.00;;;1.70;;
12302;SDS011;6214;48.012;7.862;2022-09-28T16:24:25;5.78;;;2.75;;
12302;SDS011;6214;48.012;7.862;2022-09-28T16:26:59;7.45;;;3.78;;
12302;SDS011;6214;48.012;7.862;2022-09-28T16:29:38;11.23;;;8.50;;
12302;SDS011;6214;48.012;7.862;2022-09-28T16:37:44;12.52;;;9.88;;
12302;SDS011;6214;48.012;7.862;2022-09-28T16:40:12;6.10;;;2.70;;
12302;SDS011;6214;48.012;7.862;2022-09-28T16:42:39;6.90;;;3.67;;
12302;SDS011;6214;48.012;7.862;2022-09-28T16:45:20;7.13;;;4.47;;
12302;SDS011;6214;48.012;7.862;2022-09-28T16:47:50;7.00;;;3.17;;
12302;SDS011;6214;48.012;7.862;2022-09-28T16:50:21;7.25;;;4.45;;
12302;SDS011;6214;48.012;7.862;2022-09-28T16:52:49;6.80;;;3.70;;
12302;SDS011;6214;48.012;7.862;2022-09-28T16:55:54;6.25;;;3.35;;
12302;SDS011;6214;48.012;7.862;2022-09-28T16:58:21;9.25;;;5.90;;
12302;SDS011;6214;48.012;7.862;2022-09-28T17:00:49;8.70;;;5.90;;
12302;SDS011;6214;48.012;7.862;2022-09-28T17:03:20;8.93;;;6.50;;
12302;SDS011;6214;48.012;7.862;2022-09-28T17:05:49;11.15;;;9.00;;
12302;SDS011;6214;48.012;7.862;2022-09-28T17:08:17;12.17;;;7.00;;
12302;SDS011;6214;48.012;7.862;2022-09-28T17:10:54;9.10;;;6.75;;
12302;SDS011;6214;48.012;7.862;2022-09-28T17:13:44;11.68;;;7.38;;
12302;SDS011;6214;48.012;7.862;2022-09-28T17:16:16;11.10;;;7.23;;
12302;SDS011;6214;48.012;7.862;2022-09-28T17:19:02;6.00;;;3.35;;
12302;SDS011;6214;48.012;7.862;2022-09-28T17:21:30;7.63;;;4.22;;
12302;SDS011;6214;48.012;7.862;2022-09-28T17:23:57;8.13;;;4.82;;
12302;SDS011;6214;48.012;7.862;2022-09-28T17:26:25;11.00;;;6.55;;
12302;SDS011;6214;48.012;7.862;2022-09-28T17:28:57;9.13;;;6.15;;
12302;SDS011;6214;48.012;7.862;2022-09-28T17:31:25;21.88;;;18.38;;
12302;SDS011;6214;48.012;7.862;2022-09-28T17:33:52;6.75;;;3.47;;
12302;SDS011;6214;48.012;7.862;2022-09-28T17:36:20;13.80;;;11.23;;
12302;SDS011;6214;48.012;7.862;2022-09-28T17:38:48;8.10;;;4.93;;
12302;SDS011;6214;48.012;7.862;2022-09-28T17:41:17;11.48;;;8.10;;
12302;SDS011;6214;48.012;7.862;2022-09-28T17:43:46;5.63;;;3.30;;
12302;SDS011;6214;48.012;7.862;2022-09-28T17:46:30;7.70;;;4.88;;
12302;SDS011;6214;48.012;7.862;2022-09-28T17:48:59;8.10;;;4.60;;
12302;SDS011;6214;48.012;7.862;2022-09-28T17:51:29;12.75;;;10.20;;
12302;SDS011;6214;48.012;7.862;2022-09-28T17:53:58;13.38;;;11.20;;
12302;SDS011;6214;48.012;7.862;2022-09-28T17:56:26;6.47;;;3.97;;
12302;SDS011;6214;48.012;7.862;2022-09-28T17:59:01;7.22;;;4.00;;
12302;SDS011;6214;48.012;7.862;2022-09-28T18:01:38;21.60;;;18.03;;
12302;SDS011;6214;48.012;7.862;2022-09-28T18:04:06;17.42;;;14.05;;
12302;SDS011;6214;48.012;7.862;2022-09-28T18:06:34;10.35;;;8.07;;
12302;SDS011;6214;48.012;7.862;2022-09-28T18:09:03;20.13;;;17.77;;
12302;SDS011;6214;48.012;7.862;2022-09-28T18:11:30;11.82;;;9.70;;
12302;SDS011;6214;48.012;7.862;2022-09-28T18:13:59;12.15;;;9.40;;
12302;SDS011;6214;48.012;7.862;2022-09-28T18:16:26;15.23;;;13.27;;
12302;SDS011;6214;48.012;7.862;2022-09-28T18:18:54;3.90;;;1.60;;
12302;SDS011;6214;48.012;7.862;2022-09-28T18:21:21;9.45;;;6.20;;
12302;SDS011;6214;48.012;7.862;2022-09-28T18:23:48;14.13;;;10.63;;
12302;SDS011;6214;48.012;7.862;2022-09-28T18:26:16;10.30;;;7.55;;
12302;SDS011;6214;48.012;7.862;2022-09-28T18:28:45;12.85;;;10.43;;
12302;SDS011;6214;48.012;7.862;2022-09-28T18:31:13;17.25;;;15.02;;
12302;SDS011;6214;48.012;7.862;2022-09-28T18:33:41;9.75;;;7.65;;
12302;SDS011;6214;48.012;7.862;2022-09-28T18:36:08;5.60;;;3.10;;
12302;SDS011;6214;48.012;7.862;2022-09-28T18:38:35;8.55;;;5.68;;
12302;SDS011;6214;48.012;7.862;2022-09-28T18:41:07;6.53;;;3.80;;
12302;SDS011;6214;48.012;7.862;2022-09-28T18:43:35;7.38;;;4.80;;
12302;SDS011;6214;48.012;7.862;2022-09-28T18:46:09;8.93;;;6.18;;
12302;SDS011;6214;48.012;7.862;2022-09-28T18:48:36;6.32;;;3.70;;
12302;SDS011;6214;48.012;7.862;2022-09-28T18:51:09;7.55;;;4.50;;
12302;SDS011;6214;48.012;7.862;2022-09-28T18:53:38;5.55;;;2.53;;
12302;SDS011;6214;48.012;7.862;2022-09-28T18:56:06;6.30;;;2.70;;
12302;SDS011;6214;48.012;7.862;2022-09-28T18:58:35;5.07;;;2.50;;
12302;SDS011;6214;48.012;7.862;2022-09-28T19:01:06;5.10;;;1.70;;
12302;SDS011;6214;48.012;7.862;2022-09-28T19:03:55;5.35;;;2.20;;